Terminal Aerodrome Forecast
Issued by NWS Nashville, TN

Home | Current Version | Previous Version | Text Only | Print | Product List | Glossary On
Versions: 1 2 3 4 5 6 7 8 9 10 11 12 13 14 15 16 17
252
FTUS44 KOHX 102320
TAFBNA
TAF
KBNA 102320Z 1100/1124 10003KT P6SM FEW090 SCT140 SCT250
     FM111200 17007KT P6SM SCT170 WS020/19035KT
     FM111900 18014G23KT P6SM BKN070=

USA.gov is the U.S. government's official web portal to all federal, state and local government web resources and services.